Time;durP1;ratioP1;P1;durP2;ratioP2;P2;SDS_P1;SDS_P2;PMS_P1;PMS_P2;Temp;Humidity;BMP_temperature;BMP_pressure;BME280_temperature;BME280_humidity;BME280_pressure;Samples;Min_cycle;Max_cycle;Signal;HPM_P1;HPM_P2
2023/09/10 00:01:08;;;;;;;8.37;7.67;;;24.40;58.90;;;;;;5033997;28;20603;-71
2023/09/10 00:03:34;;;;;;;8.43;7.73;;;24.40;58.90;;;;;;5034254;28;20206;-69
2023/09/10 00:06:01;;;;;;;7.97;7.27;;;24.50;59.00;;;;;;5033944;28;20197;-70
2023/09/10 00:08:27;;;;;;;9.17;8.40;;;24.40;58.90;;;;;;5033844;28;20188;-70
2023/09/10 00:10:53;;;;;;;7.77;6.97;;;24.40;58.90;;;;;;5033985;28;20458;-69
2023/09/10 00:13:19;;;;;;;8.80;8.00;;;24.40;58.90;;;;;;5033828;28;20406;-69
2023/09/10 00:15:45;;;;;;;8.60;7.90;;;24.40;59.00;;;;;;5032538;28;20437;-71
2023/09/10 00:18:11;;;;;;;9.47;8.63;;;24.40;58.90;;;;;;5033650;28;20195;-70
2023/09/10 00:20:36;;;;;;;7.00;6.30;;;24.40;58.90;;;;;;5033721;28;20168;-69
2023/09/10 00:23:02;;;;;;;7.80;7.10;;;24.40;58.90;;;;;;5033660;28;20407;-70
2023/09/10 00:25:29;;;;;;;8.37;7.53;;;24.40;59.00;;;;;;5033253;28;20207;-70
2023/09/10 00:27:56;;;;;;;8.93;7.70;;;24.40;58.90;;;;;;5032409;28;20187;-69
2023/09/10 00:30:22;;;;;;;7.97;7.27;;;24.40;58.90;;;;;;5033262;28;20462;-69
2023/09/10 00:32:48;;;;;;;8.10;7.50;;;24.40;58.90;;;;;;5033124;28;20468;-70
2023/09/10 00:35:13;;;;;;;7.73;7.13;;;24.40;58.90;;;;;;5032026;28;20645;-70
2023/09/10 00:37:40;;;;;;;8.67;7.77;;;24.40;58.90;;;;;;5032489;28;20251;-71
2023/09/10 00:40:07;;;;;;;8.97;8.17;;;24.40;58.90;;;;;;5048103;28;20291;-70
2023/09/10 00:42:32;;;;;;;8.40;7.70;;;24.40;58.90;;;;;;5047514;28;20418;-70
2023/09/10 00:44:58;;;;;;;8.47;7.67;;;24.40;58.90;;;;;;5033233;28;20477;-70
2023/09/10 00:47:24;;;;;;;7.77;7.07;;;24.40;58.90;;;;;;5033125;28;20179;-69
2023/09/10 00:49:49;;;;;;;8.73;7.60;;;24.40;58.90;;;;;;5032810;28;20203;-69
2023/09/10 00:52:16;;;;;;;8.40;7.60;;;24.40;58.90;;;;;;5033089;28;20178;-69
2023/09/10 00:54:42;;;;;;;7.70;7.00;;;24.40;58.90;;;;;;5033028;28;20164;-69
2023/09/10 00:57:08;;;;;;;9.10;8.30;;;24.40;58.90;;;;;;5033034;28;20757;-70
2023/09/10 00:59:34;;;;;;;8.50;7.50;;;24.40;58.90;;;;;;5032878;28;20518;-69
2023/09/10 01:02:00;;;;;;;7.90;7.20;;;24.40;58.90;;;;;;5032881;28;20600;-70
2023/09/10 01:04:26;;;;;;;8.23;7.50;;;24.40;58.80;;;;;;5032806;28;20446;-70
2023/09/10 01:06:52;;;;;;;8.37;7.67;;;24.40;58.80;;;;;;5032816;28;20441;-70
2023/09/10 01:09:18;;;;;;;7.93;7.23;;;24.40;58.80;;;;;;5032747;28;20621;-70
2023/09/10 01:11:53;;;;;;;9.93;8.20;;;24.40;58.80;;;;;;5031355;28;20544;-70
2023/09/10 01:14:45;;;;;;;8.53;7.83;;;24.40;58.80;;;;;;5032822;28;20171;-70
2023/09/10 01:17:33;;;;;;;8.00;7.40;;;24.40;58.90;;;;;;5017908;28;20407;-69
2023/09/10 01:20:14;;;;;;;7.60;6.90;;;24.40;58.80;;;;;;5032538;28;20434;-70
2023/09/10 01:22:53;;;;;;;8.57;7.77;;;24.40;58.80;;;;;;5031250;28;20931;-70
2023/09/10 01:25:20;;;;;;;8.33;7.63;;;24.40;58.80;;;;;;5032802;28;20481;-69
2023/09/10 01:27:46;;;;;;;8.10;7.40;;;24.40;58.80;;;;;;5032802;28;20938;-69
2023/09/10 01:30:12;;;;;;;8.23;7.43;;;24.40;58.80;;;;;;5032252;28;20962;-70
2023/09/10 01:32:47;;;;;;;8.33;7.63;;;24.40;58.80;;;;;;5032655;28;20457;-70
2023/09/10 01:35:25;;;;;;;7.77;7.07;;;24.40;58.80;;;;;;5032371;28;20398;-69
2023/09/10 01:38:02;;;;;;;8.30;7.43;;;24.40;58.80;;;;;;5032252;28;20814;-70
2023/09/10 01:40:42;;;;;;;8.80;7.97;;;24.40;58.80;;;;;;5032250;28;20440;-68
2023/09/10 01:43:08;;;;;;;7.30;6.70;;;24.40;58.70;;;;;;5032207;28;20416;-70
2023/09/10 01:45:35;;;;;;;8.47;7.07;;;24.40;58.70;;;;;;5032200;28;20418;-70
2023/09/10 01:48:01;;;;;;;8.47;7.67;;;24.30;58.60;;;;;;5032175;28;20449;-71
2023/09/10 01:50:29;;;;;;;8.07;7.33;;;24.30;58.60;;;;;;5031981;28;20468;-71
2023/09/10 01:52:56;;;;;;;9.53;7.47;;;24.30;58.60;;;;;;5032026;28;20418;-69
2023/09/10 01:55:21;;;;;;;8.00;7.30;;;24.30;58.60;;;;;;5031924;28;20411;-70
2023/09/10 01:57:47;;;;;;;7.20;6.50;;;24.40;58.60;;;;;;5031945;28;20406;-70
2023/09/10 02:00:13;;;;;;;8.17;7.47;;;24.40;58.60;;;;;;5031780;28;20719;-69
2023/09/10 02:02:38;;;;;;;7.33;6.73;;;24.30;58.60;;;;;;5031853;28;20195;-69
2023/09/10 02:05:04;;;;;;;7.43;6.83;;;24.40;58.60;;;;;;5031808;28;20411;-69
2023/09/10 02:07:30;;;;;;;7.50;6.80;;;24.30;58.50;;;;;;5031773;28;20520;-69
2023/09/10 02:09:58;;;;;;;8.20;7.50;;;24.30;58.50;;;;;;5030459;28;20640;-69
2023/09/10 02:12:24;;;;;;;7.83;7.13;;;24.40;58.60;;;;;;5031695;28;20175;-69
2023/09/10 02:14:49;;;;;;;7.07;6.43;;;24.30;58.50;;;;;;5031659;28;20406;-69
2023/09/10 02:17:15;;;;;;;7.63;7.03;;;24.30;58.50;;;;;;5031559;28;20539;-70
2023/09/10 02:19:41;;;;;;;7.57;6.97;;;24.30;58.40;;;;;;5031418;28;20664;-70
2023/09/10 02:22:06;;;;;;;6.80;6.30;;;24.30;58.50;;;;;;5013819;28;20267;-70
2023/09/10 02:24:32;;;;;;;7.80;7.20;;;24.30;59.00;;;;;;5031406;28;20700;-71
2023/09/10 02:26:57;;;;;;;7.53;6.83;;;24.30;58.40;;;;;;5013517;28;20186;-70
2023/09/10 02:29:23;;;;;;;7.57;6.87;;;24.30;58.50;;;;;;5031284;28;20279;-70
2023/09/10 02:31:48;;;;;;;7.80;7.10;;;24.30;58.50;;;;;;5031275;28;20286;-69
2023/09/10 02:34:14;;;;;;;8.50;7.70;;;24.30;58.50;;;;;;5031251;28;20176;-69
2023/09/10 02:36:40;;;;;;;7.60;7.00;;;24.30;58.50;;;;;;5031269;28;20168;-70
2023/09/10 02:39:05;;;;;;;7.63;6.93;;;24.30;58.50;;;;;;5031139;28;20262;-69
2023/09/10 02:41:31;;;;;;;7.37;6.67;;;24.30;58.50;;;;;;5029864;28;20190;-70
2023/09/10 02:43:57;;;;;;;8.40;7.60;;;24.30;58.50;;;;;;5031364;28;20187;-69
2023/09/10 02:46:25;;;;;;;7.50;6.87;;;24.30;58.50;;;;;;5031178;28;20255;-69
2023/09/10 02:48:50;;;;;;;8.20;7.50;;;24.30;58.50;;;;;;5030851;28;20215;-70
2023/09/10 02:51:16;;;;;;;6.50;6.00;;;24.30;58.50;;;;;;5030974;28;20461;-70
2023/09/10 02:53:41;;;;;;;8.00;7.37;;;24.30;58.50;;;;;;5029636;28;20262;-69
2023/09/10 02:56:07;;;;;;;8.47;7.57;;;24.30;58.50;;;;;;5031008;28;20728;-70
2023/09/10 02:58:33;;;;;;;7.93;7.33;;;24.30;58.50;;;;;;5030472;28;20179;-71
2023/09/10 03:01:05;;;;;;;7.67;7.07;;;24.30;58.50;;;;;;5046234;28;20183;-68
2023/09/10 03:03:34;;;;;;;8.33;7.57;;;24.30;58.50;;;;;;5030893;28;20190;-70
2023/09/10 03:06:00;;;;;;;8.00;7.30;;;24.30;58.50;;;;;;5029990;28;20798;-69
2023/09/10 03:08:25;;;;;;;8.10;7.30;;;24.30;58.50;;;;;;5029922;28;20426;-70
2023/09/10 03:10:51;;;;;;;7.43;6.83;;;24.30;58.50;;;;;;5028925;28;20489;-70
2023/09/10 03:13:16;;;;;;;8.60;7.80;;;24.30;58.50;;;;;;5030042;28;20657;-69
2023/09/10 03:15:47;;;;;;;7.17;6.57;;;24.30;58.60;;;;;;5030812;28;20589;-69
2023/09/10 03:18:12;;;;;;;8.03;7.33;;;24.30;58.50;;;;;;5029978;28;20194;-70
2023/09/10 03:20:38;;;;;;;7.23;6.63;;;24.30;58.50;;;;;;5030492;28;20497;-70
2023/09/10 03:23:04;;;;;;;8.30;7.60;;;24.30;58.50;;;;;;5030705;28;20225;-70
2023/09/10 03:25:34;;;;;;;7.87;7.23;;;24.30;58.50;;;;;;5045979;28;20683;-70
2023/09/10 03:27:59;;;;;;;7.23;6.63;;;24.30;58.50;;;;;;5030659;28;20838;-70
2023/09/10 03:30:25;;;;;;;8.60;7.80;;;24.30;58.50;;;;;;5030872;28;20466;-69
2023/09/10 03:32:51;;;;;;;8.60;7.80;;;24.30;58.50;;;;;;5030729;28;20191;-70
2023/09/10 03:35:16;;;;;;;8.30;7.60;;;24.20;58.40;;;;;;5030747;28;20172;-70
2023/09/10 03:37:42;;;;;;;7.70;7.10;;;24.30;58.40;;;;;;5030625;28;20251;-70
2023/09/10 03:40:08;;;;;;;9.03;8.23;;;24.30;58.40;;;;;;5030786;28;20203;-69
2023/09/10 03:42:34;;;;;;;8.50;7.70;;;24.30;58.40;;;;;;5029315;28;20237;-69
2023/09/10 03:45:00;;;;;;;7.80;7.10;;;24.20;58.30;;;;;;5029523;28;20782;-70
2023/09/10 03:47:28;;;;;;;7.83;7.17;;;24.30;58.30;;;;;;5030584;28;20180;-69
2023/09/10 03:49:53;;;;;;;8.07;7.37;;;24.30;58.40;;;;;;5028959;28;20302;-69
2023/09/10 03:52:21;;;;;;;8.03;7.40;;;24.30;58.30;;;;;;5030477;28;21021;-70
2023/09/10 03:54:47;;;;;;;7.57;6.87;;;24.30;58.30;;;;;;5030510;28;20273;-69
2023/09/10 03:57:13;;;;;;;8.50;7.70;;;24.30;58.30;;;;;;5030652;28;20442;-70
2023/09/10 03:59:39;;;;;;;7.50;6.80;;;24.20;58.20;;;;;;5030579;28;20934;-70
2023/09/10 04:02:04;;;;;;;8.53;7.83;;;24.30;58.30;;;;;;5030432;28;20176;-69
2023/09/10 04:04:30;;;;;;;8.40;7.60;;;24.20;58.10;;;;;;5030484;28;20598;-70
2023/09/10 04:06:56;;;;;;;9.37;8.47;;;24.20;58.10;;;;;;5030342;28;20179;-69
2023/09/10 04:09:21;;;;;;;8.33;7.63;;;24.20;58.10;;;;;;5031028;28;20243;-70
2023/09/10 04:11:47;;;;;;;8.60;7.80;;;24.20;58.10;;;;;;5033859;28;20196;-70
2023/09/10 04:14:12;;;;;;;8.87;7.97;;;24.20;58.10;;;;;;5032524;28;20190;-69
2023/09/10 04:16:38;;;;;;;8.73;7.47;;;24.20;58.10;;;;;;5033848;28;20584;-70
2023/09/10 04:19:04;;;;;;;8.30;7.63;;;24.20;58.10;;;;;;5033707;28;20218;-70
2023/09/10 04:21:29;;;;;;;8.50;7.80;;;24.20;58.10;;;;;;5034044;28;20178;-69
2023/09/10 04:23:55;;;;;;;9.17;8.37;;;24.20;58.10;;;;;;5033727;28;20339;-69
2023/09/10 04:26:20;;;;;;;8.83;7.93;;;24.20;58.00;;;;;;5033660;28;20176;-70
2023/09/10 04:28:46;;;;;;;8.57;7.87;;;24.20;58.00;;;;;;5033576;28;20278;-69
2023/09/10 04:31:13;;;;;;;9.23;8.33;;;24.20;58.10;;;;;;5032195;28;20199;-69
2023/09/10 04:33:39;;;;;;;8.10;7.40;;;24.20;58.00;;;;;;5033547;28;20222;-71
2023/09/10 04:36:05;;;;;;;8.87;8.07;;;24.20;58.00;;;;;;5033510;28;20831;-69
2023/09/10 04:38:30;;;;;;;9.20;8.30;;;24.20;57.90;;;;;;5033627;28;20672;-70
2023/09/10 04:40:56;;;;;;;7.93;7.27;;;24.20;57.90;;;;;;5033434;28;20191;-70
2023/09/10 04:43:22;;;;;;;8.53;7.83;;;24.20;57.90;;;;;;5033438;28;20176;-69
2023/09/10 04:45:47;;;;;;;8.63;7.80;;;24.20;57.90;;;;;;5033283;28;20171;-69
2023/09/10 04:48:13;;;;;;;8.80;8.07;;;24.20;57.90;;;;;;5033252;28;20446;-70
2023/09/10 04:50:40;;;;;;;8.13;7.43;;;24.10;57.80;;;;;;5033151;28;20679;-70
2023/09/10 04:53:06;;;;;;;8.07;7.27;;;24.20;57.90;;;;;;5033115;28;20417;-70
2023/09/10 04:55:31;;;;;;;9.27;8.47;;;24.10;57.90;;;;;;5033172;28;20406;-70
2023/09/10 04:57:57;;;;;;;9.27;8.00;;;24.20;57.90;;;;;;5033034;28;20203;-70
2023/09/10 05:00:22;;;;;;;8.37;7.67;;;24.20;57.90;;;;;;5031742;28;20279;-70
2023/09/10 05:02:48;;;;;;;9.97;9.07;;;24.10;57.80;;;;;;5033232;28;20176;-70
2023/09/10 05:05:14;;;;;;;9.13;8.10;;;24.20;57.80;;;;;;5033192;28;20187;-69
2023/09/10 05:07:40;;;;;;;9.20;8.30;;;24.20;57.80;;;;;;5015562;28;20657;-70
2023/09/10 05:10:06;;;;;;;7.83;7.20;;;24.10;57.70;;;;;;5032670;28;20461;-69
2023/09/10 05:12:32;;;;;;;9.43;8.53;;;24.10;57.80;;;;;;5032826;28;20175;-69
2023/09/10 05:14:58;;;;;;;9.27;8.37;;;24.20;57.90;;;;;;5033048;28;20418;-70
2023/09/10 05:17:23;;;;;;;9.03;8.13;;;24.10;57.70;;;;;;5032660;28;20176;-68
2023/09/10 05:19:50;;;;;;;10.00;9.00;;;24.10;57.80;;;;;;5032234;28;20429;-69
2023/09/10 05:22:16;;;;;;;8.90;8.10;;;24.20;57.80;;;;;;5031385;28;20178;-69
2023/09/10 05:24:41;;;;;;;9.33;8.30;;;24.20;57.90;;;;;;5047861;28;20854;-69
2023/09/10 05:27:07;;;;;;;9.13;8.33;;;24.10;57.90;;;;;;5032803;28;20179;-69
2023/09/10 05:29:33;;;;;;;9.57;8.60;;;24.10;57.80;;;;;;5032458;28;20188;-70
2023/09/10 05:31:58;;;;;;;9.40;8.37;;;24.10;57.80;;;;;;5032468;28;20269;-70
2023/09/10 05:34:24;;;;;;;9.03;8.23;;;24.10;57.80;;;;;;5032361;28;20180;-70
2023/09/10 05:36:50;;;;;;;8.47;7.67;;;24.10;57.70;;;;;;5032380;28;20750;-69
2023/09/10 05:39:16;;;;;;;8.90;8.10;;;24.10;57.70;;;;;;5032524;28;20223;-69
2023/09/10 05:41:42;;;;;;;9.30;8.40;;;24.10;57.70;;;;;;5032266;28;20442;-70
2023/09/10 05:44:07;;;;;;;9.90;8.73;;;24.10;57.70;;;;;;5032199;28;20172;-69
2023/09/10 05:46:33;;;;;;;9.47;8.63;;;24.10;57.70;;;;;;5032170;28;20456;-69
2023/09/10 05:48:59;;;;;;;8.73;7.83;;;24.10;57.70;;;;;;5031934;28;20218;-69
2023/09/10 05:51:24;;;;;;;9.03;8.13;;;24.10;57.70;;;;;;5032001;28;20227;-70
2023/09/10 05:53:50;;;;;;;9.40;8.60;;;24.10;57.70;;;;;;5032030;28;20179;-69
2023/09/10 05:56:15;;;;;;;7.90;7.20;;;24.10;57.70;;;;;;5031984;28;20168;-70
2023/09/10 05:58:42;;;;;;;9.50;8.50;;;24.10;57.70;;;;;;5031851;28;20207;-69
2023/09/10 06:01:08;;;;;;;8.40;7.60;;;24.10;57.70;;;;;;5031811;28;20183;-70
2023/09/10 06:03:33;;;;;;;9.90;8.60;;;24.10;57.70;;;;;;5031877;28;20413;-70
2023/09/10 06:06:01;;;;;;;9.00;8.23;;;24.10;57.70;;;;;;5031814;28;20179;-70
2023/09/10 06:08:30;;;;;;;8.73;7.93;;;24.10;57.70;;;;;;5031954;28;20200;-71
2023/09/10 06:10:56;;;;;;;9.57;8.77;;;24.10;57.70;;;;;;5031624;28;20458;-69
2023/09/10 06:13:21;;;;;;;9.20;8.30;;;24.10;58.30;;;;;;5031614;28;20406;-69
2023/09/10 06:15:47;;;;;;;8.33;7.63;;;24.10;57.70;;;;;;5031640;28;20410;-70
2023/09/10 06:18:13;;;;;;;8.33;7.53;;;24.10;57.70;;;;;;5031504;28;20556;-70
2023/09/10 06:20:38;;;;;;;8.83;8.03;;;24.10;57.70;;;;;;5031780;28;20226;-69
2023/09/10 06:23:04;;;;;;;9.37;8.47;;;24.10;57.60;;;;;;5031449;28;20743;-69
2023/09/10 06:25:30;;;;;;;8.50;7.70;;;24.10;57.60;;;;;;5031512;28;20181;-69
2023/09/10 06:27:55;;;;;;;8.70;7.90;;;24.10;57.60;;;;;;5031394;28;20533;-70
2023/09/10 06:30:21;;;;;;;8.57;7.77;;;24.10;57.70;;;;;;5031278;28;20564;-69
2023/09/10 06:32:49;;;;;;;8.83;7.93;;;24.10;57.60;;;;;;5030776;28;20206;-69
2023/09/10 06:35:15;;;;;;;8.47;7.60;;;24.10;57.60;;;;;;5031307;28;20172;-69
2023/09/10 06:37:41;;;;;;;9.00;8.23;;;24.10;57.60;;;;;;5031279;28;20406;-69
2023/09/10 06:40:07;;;;;;;9.83;7.87;;;24.10;57.60;;;;;;5031135;28;20286;-70
2023/09/10 06:42:32;;;;;;;8.87;8.00;;;24.10;57.60;;;;;;5030667;28;20665;-70
2023/09/10 06:44:58;;;;;;;10.70;8.30;;;24.10;57.60;;;;;;5031126;28;20456;-70
2023/09/10 06:47:23;;;;;;;8.87;7.97;;;24.10;57.60;;;;;;5031146;28;20234;-68
2023/09/10 06:49:49;;;;;;;8.60;7.80;;;24.10;57.70;;;;;;5030783;28;20211;-69
2023/09/10 06:52:16;;;;;;;8.47;7.67;;;24.10;57.70;;;;;;5030004;28;20207;-69
2023/09/10 06:54:41;;;;;;;8.03;7.23;;;24.10;57.70;;;;;;5031264;28;20488;-70
2023/09/10 06:57:07;;;;;;;8.03;7.30;;;24.10;57.70;;;;;;5031004;28;20171;-70
2023/09/10 06:59:33;;;;;;;7.93;7.23;;;24.10;57.70;;;;;;5030838;28;20199;-69
2023/09/10 07:01:59;;;;;;;7.93;7.13;;;24.10;57.70;;;;;;5030969;28;20191;-69
2023/09/10 07:04:25;;;;;;;7.23;6.63;;;24.10;57.80;;;;;;5031108;28;20548;-69
2023/09/10 07:06:52;;;;;;;8.13;7.33;;;24.10;57.80;;;;;;5030861;28;20180;-71
2023/09/10 07:09:23;;;;;;;7.17;6.57;;;24.10;57.80;;;;;;5030864;28;20857;-70
2023/09/10 07:11:52;;;;;;;7.43;6.83;;;24.10;57.90;;;;;;5030722;28;20965;-71
2023/09/10 07:14:19;;;;;;;8.27;7.60;;;24.10;57.90;;;;;;5030648;28;20418;-69
2023/09/10 07:16:46;;;;;;;7.70;7.10;;;24.10;57.90;;;;;;5030600;28;20402;-71
2023/09/10 07:19:12;;;;;;;8.23;7.43;;;24.10;57.90;;;;;;5030984;28;20470;-69
2023/09/10 07:21:38;;;;;;;7.83;7.13;;;24.10;57.90;;;;;;5030827;28;20861;-69
2023/09/10 07:24:06;;;;;;;8.23;7.53;;;24.10;57.90;;;;;;5030798;28;20183;-70
2023/09/10 07:26:33;;;;;;;7.60;6.90;;;24.20;58.00;;;;;;5030745;28;20410;-69
2023/09/10 07:28:58;;;;;;;7.57;6.83;;;24.20;58.00;;;;;;5030556;28;20529;-70
2023/09/10 07:31:24;;;;;;;7.70;6.90;;;24.10;58.00;;;;;;5029988;28;20886;-70
2023/09/10 07:33:50;;;;;;;8.93;8.03;;;24.10;58.00;;;;;;5030622;28;20180;-68
2023/09/10 07:36:15;;;;;;;8.00;7.40;;;24.10;58.00;;;;;;5030510;28;20740;-71
2023/09/10 07:38:41;;;;;;;7.77;7.10;;;24.10;58.00;;;;;;5030575;28;20217;-69
2023/09/10 07:41:06;;;;;;;7.70;7.10;;;24.10;58.00;;;;;;5030452;28;20179;-70
2023/09/10 07:43:32;;;;;;;8.30;7.60;;;24.10;58.00;;;;;;5031700;28;20179;-69
2023/09/10 07:45:57;;;;;;;7.70;7.00;;;24.20;58.10;;;;;;5034356;28;20183;-69
2023/09/10 07:48:23;;;;;;;7.30;6.60;;;24.20;58.10;;;;;;5034320;28;20765;-69
2023/09/10 07:50:58;;;;;;;8.20;7.40;;;24.20;58.10;;;;;;5033604;28;20222;-70
2023/09/10 07:53:24;;;;;;;7.90;7.20;;;24.20;58.10;;;;;;5034010;28;20183;-69
2023/09/10 07:55:50;;;;;;;7.00;6.40;;;24.20;58.20;;;;;;5034279;28;20584;-70
2023/09/10 07:58:16;;;;;;;7.47;6.77;;;24.20;58.20;;;;;;5034060;28;20479;-71
2023/09/10 08:00:41;;;;;;;7.67;6.97;;;24.20;58.20;;;;;;5034125;28;20672;-70
2023/09/10 08:03:07;;;;;;;8.33;7.47;;;24.20;58.20;;;;;;5034046;28;20297;-70
2023/09/10 08:05:34;;;;;;;8.40;7.70;;;24.20;58.20;;;;;;5034024;28;20175;-70
2023/09/10 08:08:03;;;;;;;7.93;7.20;;;24.20;58.20;;;;;;5033851;28;20179;-71
2023/09/10 08:10:29;;;;;;;8.43;7.10;;;24.20;58.20;;;;;;5033891;28;20457;-70
2023/09/10 08:12:55;;;;;;;8.10;7.40;;;24.20;58.20;;;;;;5033795;28;20413;-70
2023/09/10 08:15:20;;;;;;;7.23;6.60;;;24.20;58.20;;;;;;5033678;28;20414;-70
2023/09/10 08:17:49;;;;;;;8.70;8.00;;;24.20;58.20;;;;;;5033648;28;20234;-71
2023/09/10 08:20:15;;;;;;;6.77;6.17;;;24.20;58.20;;;;;;5033783;28;20184;-71
2023/09/10 08:22:42;;;;;;;7.83;7.17;;;24.20;58.20;;;;;;5022412;28;20419;-71
2023/09/10 08:25:08;;;;;;;7.40;6.80;;;24.20;58.30;;;;;;5023992;28;20231;-70
2023/09/10 08:27:35;;;;;;;7.30;6.60;;;24.20;58.30;;;;;;5023339;28;20813;-70
2023/09/10 08:30:05;;;;;;;7.33;6.73;;;24.20;58.30;;;;;;5021982;28;20242;-69
2023/09/10 08:32:35;;;;;;;7.90;7.30;;;24.20;58.30;;;;;;5021801;28;20965;-70
2023/09/10 08:35:00;;;;;;;7.20;6.60;;;24.20;58.40;;;;;;5024031;28;20402;-70
2023/09/10 08:37:26;;;;;;;8.53;7.73;;;24.20;58.40;;;;;;5022220;28;20449;-70
2023/09/10 08:39:53;;;;;;;7.93;7.07;;;24.20;58.30;;;;;;5023249;28;20195;-70
2023/09/10 08:42:37;;;;;;;7.43;6.70;;;24.20;58.40;;;;;;5023911;28;20172;-70
2023/09/10 08:45:07;;;;;;;8.07;7.37;;;24.20;58.40;;;;;;5024429;28;20473;-71
2023/09/10 08:47:40;;;;;;;7.20;6.60;;;24.20;58.40;;;;;;5020076;28;20920;-69
2023/09/10 08:50:10;;;;;;;8.07;7.37;;;24.20;58.40;;;;;;5013259;28;20443;-71
2023/09/10 08:52:44;;;;;;;7.80;7.10;;;24.20;58.40;;;;;;5011983;28;20419;-71
2023/09/10 08:55:11;;;;;;;7.47;6.83;;;24.20;58.40;;;;;;5013271;28;20422;-70
2023/09/10 08:57:39;;;;;;;7.30;6.70;;;24.20;58.50;;;;;;5013232;28;20415;-71
2023/09/10 09:00:12;;;;;;;8.27;7.57;;;24.30;58.60;;;;;;5013149;28;20428;-70
2023/09/10 09:02:44;;;;;;;8.10;7.40;;;24.20;58.50;;;;;;5013168;28;21103;-70
2023/09/10 09:05:11;;;;;;;7.70;7.00;;;24.30;58.60;;;;;;5013088;28;20772;-70
2023/09/10 09:07:52;;;;;;;7.80;7.10;;;24.30;58.60;;;;;;5013067;28;20404;-71
2023/09/10 09:10:26;;;;;;;8.20;7.40;;;24.30;58.60;;;;;;5013073;28;20865;-70
2023/09/10 09:12:56;;;;;;;8.60;7.17;;;24.30;58.70;;;;;;5012988;28;20888;-70
2023/09/10 09:15:23;;;;;;;7.30;6.63;;;24.30;58.70;;;;;;5013427;28;20403;-69
2023/09/10 09:17:50;;;;;;;8.27;7.47;;;24.30;58.70;;;;;;5013174;28;20928;-71
2023/09/10 09:20:19;;;;;;;9.13;7.20;;;24.30;58.70;;;;;;5012771;28;20418;-70
2023/09/10 09:22:49;;;;;;;8.40;7.60;;;24.30;58.70;;;;;;5013958;28;20415;-70
2023/09/10 09:25:15;;;;;;;8.23;7.53;;;24.30;58.70;;;;;;5020333;28;20526;-71
2023/09/10 09:27:41;;;;;;;7.73;7.03;;;24.30;58.70;;;;;;5018319;28;20423;-70
2023/09/10 09:30:07;;;;;;;8.17;7.47;;;24.30;58.70;;;;;;5017738;28;20469;-70
2023/09/10 09:32:37;;;;;;;8.30;7.60;;;24.30;58.70;;;;;;5012596;28;20184;-71
2023/09/10 09:35:04;;;;;;;8.10;7.30;;;24.30;58.80;;;;;;5012549;28;20439;-71
2023/09/10 09:37:33;;;;;;;7.60;6.90;;;24.30;58.80;;;;;;5017657;28;20422;-69
2023/09/10 09:40:03;;;;;;;7.97;7.27;;;24.30;58.80;;;;;;5022202;28;20438;-69
2023/09/10 09:42:29;;;;;;;8.90;8.10;;;24.30;58.80;;;;;;5023201;28;20915;-70
2023/09/10 09:44:55;;;;;;;8.60;7.70;;;24.30;58.90;;;;;;5021577;28;20411;-70
2023/09/10 09:47:21;;;;;;;10.20;9.33;;;24.30;58.90;;;;;;5021444;28;20421;-70
2023/09/10 09:49:50;;;;;;;9.67;8.77;;;24.30;58.90;;;;;;5022757;28;20214;-70
2023/09/10 09:52:18;;;;;;;8.43;7.70;;;24.30;58.90;;;;;;5021714;28;20570;-69
2023/09/10 09:54:45;;;;;;;8.90;8.20;;;24.30;58.90;;;;;;5032011;28;20509;-70
2023/09/10 09:57:10;;;;;;;8.47;7.73;;;24.30;59.00;;;;;;5032013;28;20415;-70
2023/09/10 09:59:37;;;;;;;8.67;7.97;;;24.30;59.00;;;;;;5025853;28;20464;-70
2023/09/10 10:02:03;;;;;;;8.50;7.70;;;24.30;59.00;;;;;;5031995;28;20175;-70
2023/09/10 10:04:32;;;;;;;9.10;8.20;;;24.30;59.00;;;;;;5030506;28;20422;-69
2023/09/10 10:06:58;;;;;;;8.43;7.73;;;24.30;59.00;;;;;;5029388;28;20469;-70
2023/09/10 10:09:34;;;;;;;8.87;8.07;;;24.40;59.10;;;;;;5031592;28;20438;-69
2023/09/10 10:12:00;;;;;;;9.20;8.30;;;24.40;59.10;;;;;;5031861;28;20992;-70
2023/09/10 10:14:26;;;;;;;9.33;8.53;;;24.30;59.00;;;;;;5031399;28;20410;-69
2023/09/10 10:16:53;;;;;;;8.60;7.90;;;24.30;59.10;;;;;;5031651;28;20464;-70
2023/09/10 10:19:19;;;;;;;8.23;7.50;;;24.40;59.20;;;;;;5031219;28;20435;-70
2023/09/10 10:21:46;;;;;;;7.90;7.30;;;24.30;59.10;;;;;;5031398;28;20425;-70
2023/09/10 10:24:15;;;;;;;8.47;7.57;;;24.40;59.20;;;;;;5031498;28;20786;-71
2023/09/10 10:26:42;;;;;;;8.97;8.13;;;24.40;59.20;;;;;;5031353;28;20422;-70
2023/09/10 10:29:09;;;;;;;9.13;8.33;;;24.40;59.20;;;;;;5031290;28;20954;-68
2023/09/10 10:31:37;;;;;;;8.03;7.33;;;24.40;59.10;;;;;;5031155;28;20446;-70
2023/09/10 10:34:11;;;;;;;8.73;7.93;;;24.40;59.00;;;;;;5029732;28;20426;-71
2023/09/10 10:36:49;;;;;;;8.67;7.87;;;24.40;59.10;;;;;;5031209;28;20490;-72
2023/09/10 10:39:16;;;;;;;9.50;8.30;;;24.40;59.10;;;;;;5030099;28;20509;-71
2023/09/10 10:41:50;;;;;;;8.43;7.60;;;24.40;59.30;;;;;;5031240;28;20450;-71
2023/09/10 10:44:21;;;;;;;9.37;8.47;;;24.40;60.00;;;;;;5031510;28;20480;-71
2023/09/10 10:46:51;;;;;;;8.40;7.50;;;24.40;59.40;;;;;;5031098;28;20403;-70
2023/09/10 10:49:18;;;;;;;8.00;7.30;;;24.40;59.30;;;;;;5030908;28;20458;-70
2023/09/10 10:51:47;;;;;;;9.23;7.43;;;24.40;59.30;;;;;;5030760;28;20465;-71
2023/09/10 10:54:14;;;;;;;8.70;7.83;;;24.40;59.40;;;;;;5030860;28;20406;-71
2023/09/10 10:56:40;;;;;;;7.87;7.20;;;24.40;59.40;;;;;;5030695;28;20923;-72
2023/09/10 10:59:05;;;;;;;7.90;7.20;;;24.40;59.50;;;;;;5030043;28;20438;-70
2023/09/10 11:01:32;;;;;;;8.80;8.00;;;24.50;59.50;;;;;;5030566;28;20422;-71
2023/09/10 11:03:57;;;;;;;11.57;9.10;;;24.40;60.00;;;;;;5030808;28;20221;-71
2023/09/10 11:06:23;;;;;;;9.23;8.33;;;24.40;59.40;;;;;;5030879;28;20493;-70
2023/09/10 11:08:48;;;;;;;8.90;8.00;;;24.40;59.40;;;;;;5030744;28;20226;-71
2023/09/10 11:11:37;;;;;;;9.00;8.20;;;24.40;59.40;;;;;;5030753;28;20196;-70
2023/09/10 11:14:08;;;;;;;9.90;7.50;;;24.50;59.50;;;;;;5031070;28;20179;-71
2023/09/10 11:16:38;;;;;;;9.40;8.50;;;24.40;59.40;;;;;;5030152;28;20536;-70
2023/09/10 11:19:04;;;;;;;8.27;7.47;;;24.50;59.50;;;;;;5048114;28;20804;-71
2023/09/10 11:21:54;;;;;;;8.80;7.80;;;24.40;59.40;;;;;;5034839;28;20421;-70
2023/09/10 11:24:20;;;;;;;9.77;8.87;;;24.50;59.40;;;;;;5034755;28;20187;-70
2023/09/10 11:26:46;;;;;;;9.17;8.13;;;24.50;59.40;;;;;;5034772;28;20413;-71
2023/09/10 11:29:17;;;;;;;9.00;8.13;;;24.50;59.40;;;;;;5034722;28;20203;-70
2023/09/10 11:31:44;;;;;;;9.50;8.50;;;24.50;59.40;;;;;;5034591;28;20183;-71
2023/09/10 11:34:15;;;;;;;8.23;7.43;;;24.50;59.40;;;;;;5034703;28;20508;-70
2023/09/10 11:36:43;;;;;;;8.67;7.83;;;24.50;59.40;;;;;;5034638;28;20414;-70
2023/09/10 11:39:09;;;;;;;9.43;8.40;;;24.50;59.40;;;;;;5034484;28;20430;-71
2023/09/10 11:41:35;;;;;;;9.73;8.40;;;24.50;59.40;;;;;;5034578;28;20587;-70
2023/09/10 11:44:03;;;;;;;8.00;7.20;;;24.50;59.40;;;;;;5034538;28;20259;-71
2023/09/10 11:46:29;;;;;;;9.10;8.30;;;24.50;59.30;;;;;;5034460;28;20180;-70
2023/09/10 11:48:54;;;;;;;8.63;7.83;;;24.50;59.40;;;;;;5032785;28;20473;-72
2023/09/10 11:51:20;;;;;;;13.20;8.30;;;24.50;59.30;;;;;;5049670;28;20281;-70
2023/09/10 11:53:46;;;;;;;9.20;7.97;;;24.50;59.30;;;;;;5034322;28;20172;-72
2023/09/10 11:56:12;;;;;;;9.60;7.50;;;24.50;59.30;;;;;;5034349;28;20254;-70
2023/09/10 11:58:37;;;;;;;8.60;7.80;;;24.50;59.30;;;;;;5034145;28;20584;-71
2023/09/10 12:01:04;;;;;;;9.00;8.13;;;24.50;59.30;;;;;;5034180;28;20190;-71
2023/09/10 12:03:32;;;;;;;9.07;8.27;;;24.50;59.30;;;;;;5034188;28;20438;-70
2023/09/10 12:05:58;;;;;;;8.60;7.80;;;24.50;59.40;;;;;;5034081;28;20410;-69
2023/09/10 12:08:24;;;;;;;9.60;8.53;;;24.50;59.80;;;;;;5033966;28;20434;-71
2023/09/10 12:10:54;;;;;;;8.67;7.80;;;24.50;59.30;;;;;;5032087;28;20464;-70
2023/09/10 12:13:20;;;;;;;9.17;7.90;;;24.50;59.30;;;;;;5032830;28;20180;-70
2023/09/10 12:15:46;;;;;;;8.07;7.30;;;24.50;59.30;;;;;;5033765;28;20414;-71
2023/09/10 12:18:12;;;;;;;8.77;7.63;;;24.50;59.30;;;;;;5033690;28;20441;-71
2023/09/10 12:20:39;;;;;;;7.83;7.03;;;24.50;59.30;;;;;;5033811;28;20180;-69
2023/09/10 12:23:05;;;;;;;8.53;7.70;;;24.50;59.20;;;;;;5033955;28;20407;-70
2023/09/10 12:25:30;;;;;;;7.90;7.10;;;24.50;59.20;;;;;;5033923;28;20860;-70
2023/09/10 12:27:57;;;;;;;8.40;7.60;;;24.50;59.20;;;;;;5034506;28;20449;-70
2023/09/10 12:30:23;;;;;;;9.33;8.43;;;24.50;59.20;;;;;;5033292;28;20222;-70
2023/09/10 12:32:50;;;;;;;8.70;7.90;;;24.50;59.20;;;;;;5034233;28;20406;-71
2023/09/10 12:35:15;;;;;;;7.77;7.13;;;24.50;59.20;;;;;;5034297;28;20168;-72
2023/09/10 12:37:51;;;;;;;8.33;7.53;;;24.50;59.20;;;;;;5034136;28;21335;-72
2023/09/10 12:40:19;;;;;;;11.17;7.60;;;24.50;59.30;;;;;;5033971;28;20163;-70
2023/09/10 12:42:46;;;;;;;8.93;8.03;;;24.50;59.30;;;;;;5034155;28;20418;-69
2023/09/10 12:45:12;;;;;;;8.57;7.70;;;24.50;59.30;;;;;;5033872;28;20430;-69